createdAt,value
2017-11-16T00:01:28.038Z,83.70
2017-11-16T00:03:55.002Z,83.80
2017-11-16T00:06:21.191Z,83.70
2017-11-16T00:08:48.866Z,83.90
2017-11-16T00:11:15.765Z,83.60
2017-11-16T00:13:41.950Z,84.00
2017-11-16T00:16:08.153Z,84.40
2017-11-16T00:18:34.351Z,85.00
2017-11-16T00:21:00.558Z,84.60
2017-11-16T00:23:26.729Z,84.70
2017-11-16T00:25:52.909Z,84.40
2017-11-16T00:28:19.065Z,84.00
2017-11-16T00:30:45.970Z,84.00
2017-11-16T00:33:12.133Z,84.00
2017-11-16T00:35:39.034Z,84.20
2017-11-16T00:38:05.201Z,84.10
2017-11-16T00:40:31.357Z,84.20
2017-11-16T00:42:58.265Z,83.70
2017-11-16T00:45:24.469Z,83.70
2017-11-16T00:47:50.669Z,84.10
2017-11-16T00:50:17.589Z,84.80
2017-11-16T00:52:43.821Z,84.40
2017-11-16T00:55:11.513Z,85.00
2017-11-16T00:57:37.722Z,85.00
2017-11-16T01:00:03.926Z,85.10
2017-11-16T01:02:30.089Z,85.40
2017-11-16T01:04:56.323Z,85.50
2017-11-16T01:07:22.499Z,85.60
2017-11-16T01:09:49.421Z,85.80
2017-11-16T01:12:15.564Z,85.80
2017-11-16T01:14:41.740Z,85.70
2017-11-16T01:17:07.877Z,85.70
2017-11-16T01:19:34.045Z,85.50
2017-11-16T01:22:00.222Z,85.50
2017-11-16T01:24:27.120Z,85.50
2017-11-16T01:26:53.294Z,85.40
2017-11-16T01:29:20.210Z,85.50
2017-11-16T01:31:46.367Z,85.50
2017-11-16T01:34:12.529Z,85.50
2017-11-16T01:36:38.696Z,85.50
2017-11-16T01:39:04.866Z,85.40
2017-11-16T01:41:31.782Z,85.30
2017-11-16T01:43:57.970Z,85.30
2017-11-16T01:46:24.878Z,85.40
2017-11-16T01:48:51.063Z,85.40
2017-11-16T01:51:17.240Z,85.60
2017-11-16T01:53:43.419Z,85.60
2017-11-16T01:56:10.336Z,85.60
2017-11-16T01:58:36.525Z,85.60
2017-11-16T02:01:02.684Z,85.40
2017-11-16T02:03:28.865Z,85.30
2017-11-16T02:05:55.897Z,85.50
2017-11-16T02:08:22.058Z,85.40
2017-11-16T02:10:48.998Z,85.40
2017-11-16T02:13:15.895Z,85.70
2017-11-16T02:15:42.046Z,85.40
2017-11-16T02:18:08.203Z,84.90
2017-11-16T02:20:34.363Z,85.10
2017-11-16T02:23:00.537Z,85.10
2017-11-16T02:25:26.681Z,85.00
2017-11-16T02:27:52.837Z,84.80
2017-11-16T02:30:19.752Z,84.90
2017-11-16T02:32:45.958Z,84.90
2017-11-16T02:35:12.190Z,84.90
2017-11-16T02:37:38.343Z,84.30
2017-11-16T02:40:04.520Z,84.20
2017-11-16T02:42:30.703Z,83.70
2017-11-16T02:44:56.861Z,84.00
2017-11-16T02:47:23.003Z,84.30
2017-11-16T02:49:49.166Z,84.30
2017-11-16T02:52:15.343Z,84.30
2017-11-16T02:54:41.497Z,84.40
2017-11-16T02:57:07.663Z,84.40
2017-11-16T02:59:34.567Z,84.80
2017-11-16T03:02:00.754Z,84.70
2017-11-16T03:04:27.673Z,84.90
2017-11-16T03:06:53.914Z,84.80
2017-11-16T03:12:26.569Z,85.00
2017-11-16T03:14:52.742Z,84.90
2017-11-16T03:17:18.905Z,85.00
2017-11-16T03:19:45.098Z,85.00
2017-11-16T03:22:11.265Z,84.60
2017-11-16T03:24:37.438Z,84.70
2017-11-16T03:27:03.672Z,84.60
2017-11-16T03:29:29.862Z,84.10
2017-11-16T03:31:56.762Z,83.90
2017-11-16T03:34:22.955Z,83.80
2017-11-16T03:36:49.127Z,84.10
2017-11-16T03:39:15.305Z,84.10
2017-11-16T03:41:42.235Z,83.90
2017-11-16T03:44:08.398Z,83.90
2017-11-16T03:46:35.285Z,83.70
2017-11-16T03:49:01.502Z,83.60
2017-11-16T03:51:27.669Z,83.70
2017-11-16T03:53:53.829Z,83.90
2017-11-16T03:56:20.785Z,83.70
2017-11-16T03:58:46.990Z,83.70
2017-11-16T04:01:14.641Z,84.00
2017-11-16T04:03:40.866Z,83.50
2017-11-16T04:06:07.030Z,83.70
2017-11-16T04:08:36.617Z,83.90
2017-11-16T04:11:02.810Z,83.70
2017-11-16T04:13:29.725Z,84.00
2017-11-16T04:15:55.939Z,83.90
2017-11-16T04:18:22.125Z,83.70
2017-11-16T04:20:48.281Z,83.80
2017-11-16T04:23:14.455Z,83.80
2017-11-16T04:25:40.637Z,83.60
2017-11-16T04:28:07.052Z,83.60
2017-11-16T04:30:34.050Z,84.10
2017-11-16T04:33:00.229Z,84.20
2017-11-16T04:35:26.408Z,83.60
2017-11-16T04:37:52.546Z,83.30
2017-11-16T04:40:18.731Z,83.40
2017-11-16T04:42:45.634Z,83.50
2017-11-16T04:45:11.802Z,83.40
2017-11-16T04:47:37.994Z,83.60
2017-11-16T04:50:04.168Z,83.70
2017-11-16T04:52:30.405Z,83.70
2017-11-16T04:54:57.346Z,83.10
2017-11-16T04:57:23.526Z,83.10
2017-11-16T04:59:49.702Z,83.10
2017-11-16T05:02:15.887Z,83.20
2017-11-16T05:04:42.066Z,83.30
2017-11-16T05:07:08.265Z,83.10
2017-11-16T05:09:36.274Z,82.90
2017-11-16T05:12:02.470Z,83.00
2017-11-16T05:14:28.639Z,83.30
2017-11-16T05:16:54.833Z,82.90
2017-11-16T05:19:21.034Z,82.90
2017-11-16T05:21:48.010Z,83.20
2017-11-16T05:24:14.204Z,83.20
2017-11-16T05:26:40.378Z,82.90
2017-11-16T05:29:07.281Z,83.40
2017-11-16T05:31:33.478Z,83.30
2017-11-16T05:33:59.658Z,83.70
2017-11-16T05:36:25.828Z,83.40
2017-11-16T05:38:52.061Z,83.30
2017-11-16T05:41:18.979Z,83.40
2017-11-16T05:43:45.127Z,83.30
2017-11-16T05:46:12.058Z,83.10
2017-11-16T05:48:38.239Z,83.00
2017-11-16T05:51:04.459Z,82.60
2017-11-16T05:53:30.674Z,82.40
2017-11-16T05:55:56.872Z,82.70
2017-11-16T05:58:23.070Z,82.90
2017-11-16T06:00:49.343Z,83.30
2017-11-16T06:03:15.554Z,83.00
2017-11-16T06:05:41.745Z,83.00
2017-11-16T06:08:08.677Z,83.20
2017-11-16T06:10:36.551Z,83.20
2017-11-16T06:13:02.748Z,83.20
2017-11-16T06:15:28.958Z,83.30
2017-11-16T06:17:55.132Z,83.40
2017-11-16T06:20:21.343Z,83.20
2017-11-16T06:22:47.541Z,83.30
2017-11-16T06:25:13.717Z,83.30
2017-11-16T06:27:39.899Z,83.30
2017-11-16T06:30:06.861Z,84.00
2017-11-16T06:32:33.795Z,83.70
2017-11-16T06:34:59.965Z,83.50
2017-11-16T06:37:26.897Z,83.90
2017-11-16T06:39:53.838Z,83.90
2017-11-16T06:42:20.075Z,83.80
2017-11-16T06:44:47.022Z,82.90
2017-11-16T06:47:13.178Z,82.90
2017-11-16T06:49:40.081Z,83.00
2017-11-16T06:52:06.296Z,82.90
2017-11-16T06:54:32.497Z,82.70
2017-11-16T06:56:59.414Z,82.90
2017-11-16T06:59:27.112Z,82.60
2017-11-16T07:01:54.038Z,82.30
2017-11-16T07:04:20.209Z,82.30
2017-11-16T07:06:46.386Z,82.20
2017-11-16T07:09:12.554Z,82.40
2017-11-16T07:11:39.743Z,81.80
2017-11-16T07:14:05.952Z,81.60
2017-11-16T07:16:32.865Z,81.70
2017-11-16T07:18:59.076Z,81.70
2017-11-16T07:21:25.280Z,81.70
2017-11-16T07:23:52.182Z,81.60
2017-11-16T07:26:18.358Z,81.60
2017-11-16T07:28:45.343Z,81.70
2017-11-16T07:31:11.518Z,81.70
2017-11-16T07:33:38.434Z,81.50
2017-11-16T07:36:04.635Z,81.50
2017-11-16T07:38:30.822Z,80.60
2017-11-16T07:40:56.997Z,80.80
2017-11-16T07:43:23.194Z,80.90
2017-11-16T07:45:49.386Z,80.90
2017-11-16T07:48:15.581Z,80.40
2017-11-16T07:50:42.510Z,81.20
2017-11-16T07:53:08.716Z,81.10
2017-11-16T07:55:34.894Z,81.10
2017-11-16T07:58:01.830Z,81.80
2017-11-16T08:00:28.003Z,81.30
2017-11-16T08:02:54.186Z,81.10
2017-11-16T08:05:20.389Z,80.90
2017-11-16T08:07:46.599Z,80.50
2017-11-16T08:10:13.499Z,80.50
2017-11-16T08:12:39.910Z,80.40
2017-11-16T08:15:06.081Z,80.60
2017-11-16T08:17:32.250Z,80.40
2017-11-16T08:19:58.447Z,79.90
2017-11-16T08:22:24.629Z,79.90
2017-11-16T08:24:50.807Z,79.90
2017-11-16T08:27:17.014Z,79.60
2017-11-16T08:29:43.192Z,79.40
2017-11-16T08:32:09.368Z,79.50
2017-11-16T08:34:35.583Z,79.50
2017-11-16T08:37:01.747Z,79.40
2017-11-16T08:39:27.979Z,79.70
2017-11-16T08:41:54.169Z,79.60
2017-11-16T08:44:21.091Z,79.90
2017-11-16T08:46:47.252Z,79.90
2017-11-16T08:49:13.439Z,80.10
2017-11-16T08:51:39.629Z,80.00
2017-11-16T08:54:06.542Z,80.50
2017-11-16T08:56:32.722Z,80.50
2017-11-16T08:58:59.624Z,81.00
2017-11-16T09:01:25.824Z,80.90
2017-11-16T09:03:51.997Z,81.40
2017-11-16T09:06:18.149Z,81.40
2017-11-16T09:08:44.327Z,81.60
2017-11-16T09:11:10.508Z,81.30
2017-11-16T09:13:36.748Z,81.10
2017-11-16T09:16:02.922Z,81.30
2017-11-16T09:18:29.106Z,81.20
2017-11-16T09:20:55.274Z,81.00
2017-11-16T09:23:21.434Z,81.20
2017-11-16T09:25:47.646Z,81.30
2017-11-16T09:28:13.836Z,80.50
2017-11-16T09:30:41.486Z,80.10
2017-11-16T09:33:07.668Z,80.10
2017-11-16T09:35:34.577Z,79.80
2017-11-16T09:38:00.730Z,79.80
2017-11-16T09:40:26.929Z,80.00
2017-11-16T09:42:53.093Z,79.70
2017-11-16T09:45:19.255Z,79.20
2017-11-16T09:47:45.450Z,80.10
2017-11-16T09:50:11.658Z,80.00
2017-11-16T09:52:37.832Z,79.80
2017-11-16T09:55:04.031Z,80.00
2017-11-16T09:57:30.206Z,80.30
2017-11-16T09:59:56.407Z,80.20
2017-11-16T10:02:22.618Z,80.30
2017-11-16T10:04:48.830Z,80.40
2017-11-16T10:07:15.019Z,79.60
2017-11-16T10:09:41.225Z,79.20
2017-11-16T10:12:07.399Z,79.80
2017-11-16T10:14:33.637Z,80.40
2017-11-16T10:17:01.306Z,80.40
2017-11-16T10:19:28.223Z,80.40
2017-11-16T10:21:54.398Z,80.30
2017-11-16T10:24:21.325Z,79.20
2017-11-16T10:26:47.494Z,79.20
2017-11-16T10:29:14.413Z,79.30
2017-11-16T10:31:40.606Z,78.90
2017-11-16T10:34:06.775Z,79.30
2017-11-16T10:36:32.975Z,79.80
2017-11-16T10:38:59.186Z,78.70
2017-11-16T10:41:25.363Z,79.10
2017-11-16T10:43:51.588Z,79.30
2017-11-16T10:46:17.823Z,79.10
2017-11-16T10:48:43.988Z,79.40
2017-11-16T10:51:10.179Z,79.80
2017-11-16T10:53:36.370Z,78.90
2017-11-16T10:56:03.265Z,79.00
2017-11-16T10:58:29.444Z,79.00
2017-11-16T11:00:56.370Z,77.70
2017-11-16T11:03:23.325Z,79.00
2017-11-16T11:05:49.495Z,78.00
2017-11-16T11:08:15.705Z,77.90
2017-11-16T11:10:41.955Z,77.70
2017-11-16T11:13:08.869Z,78.80
2017-11-16T11:15:35.145Z,78.80
2017-11-16T11:18:02.054Z,78.30
2017-11-16T11:20:28.222Z,78.20
2017-11-16T11:22:55.161Z,78.50
2017-11-16T11:25:21.354Z,78.60
2017-11-16T11:27:47.527Z,78.40
2017-11-16T11:30:14.451Z,78.70
2017-11-16T11:32:40.631Z,78.70
2017-11-16T11:35:07.540Z,78.70
2017-11-16T11:37:33.734Z,78.60
2017-11-16T11:39:59.906Z,78.70
2017-11-16T11:42:26.089Z,78.90
2017-11-16T11:44:52.301Z,78.90
2017-11-16T11:47:19.228Z,78.90
2017-11-16T11:49:45.422Z,78.80
2017-11-16T11:52:11.618Z,79.20
2017-11-16T11:54:37.783Z,78.90
2017-11-16T11:57:03.951Z,78.90
2017-11-16T11:59:30.137Z,78.50
2017-11-16T12:01:57.038Z,77.70
2017-11-16T12:04:23.218Z,77.60
2017-11-16T12:06:49.414Z,78.30
2017-11-16T12:09:15.603Z,77.80
2017-11-16T12:11:41.778Z,77.60
2017-11-16T12:14:07.942Z,78.00
2017-11-16T12:16:35.162Z,78.60
2017-11-16T12:19:01.341Z,79.20
2017-11-16T12:21:28.258Z,79.00
2017-11-16T12:23:54.426Z,79.00
2017-11-16T12:26:21.343Z,79.80
2017-11-16T12:28:47.574Z,79.10
2017-11-16T12:31:13.766Z,79.00
2017-11-16T12:33:39.942Z,78.70
2017-11-16T12:36:06.138Z,79.10
2017-11-16T12:38:32.340Z,79.20
2017-11-16T12:40:59.247Z,79.60
2017-11-16T12:43:25.442Z,79.60
2017-11-16T12:45:51.615Z,79.90
2017-11-16T12:48:17.802Z,80.40
2017-11-16T12:50:44.010Z,80.10
2017-11-16T12:53:10.941Z,80.00
2017-11-16T12:55:37.098Z,80.00
2017-11-16T12:58:04.029Z,80.20
2017-11-16T13:00:30.204Z,80.20
2017-11-16T13:02:57.114Z,80.40
2017-11-16T13:05:24.057Z,80.40
2017-11-16T13:07:50.237Z,80.40
2017-11-16T13:10:17.151Z,80.20
2017-11-16T13:12:44.082Z,80.00
2017-11-16T13:15:10.260Z,80.00
2017-11-16T13:17:37.403Z,80.00
2017-11-16T13:20:03.639Z,80.00
2017-11-16T13:22:29.802Z,80.40
2017-11-16T13:24:56.072Z,79.90
2017-11-16T13:27:22.274Z,79.90
2017-11-16T13:29:48.425Z,79.70
2017-11-16T13:32:14.603Z,80.20
2017-11-16T13:34:41.544Z,80.50
2017-11-16T13:37:07.694Z,80.50
2017-11-16T13:39:34.606Z,80.90
2017-11-16T13:42:00.785Z,80.90
2017-11-16T13:44:27.714Z,80.40
2017-11-16T13:46:54.630Z,80.50
2017-11-16T13:49:20.809Z,80.20
2017-11-16T13:51:46.971Z,80.40
2017-11-16T13:54:13.160Z,80.40
2017-11-16T13:56:39.366Z,80.40
2017-11-16T13:59:05.602Z,80.60
2017-11-16T14:01:31.787Z,80.40
2017-11-16T14:03:58.698Z,80.10
2017-11-16T14:06:24.878Z,80.00
2017-11-16T14:08:51.795Z,80.00
2017-11-16T14:11:18.008Z,80.00
2017-11-16T14:13:44.182Z,80.00
2017-11-16T14:16:11.110Z,80.00
2017-11-16T14:18:37.382Z,80.00
2017-11-16T14:21:04.278Z,79.60
2017-11-16T14:23:30.474Z,79.60
2017-11-16T14:25:56.644Z,80.00
2017-11-16T14:28:22.811Z,80.10
2017-11-16T14:30:49.734Z,79.90
2017-11-16T14:33:15.913Z,80.50
2017-11-16T14:35:42.815Z,80.00
2017-11-16T14:38:08.990Z,79.90
2017-11-16T14:40:35.924Z,80.30
2017-11-16T14:43:02.858Z,80.40
2017-11-16T14:45:29.038Z,80.30
2017-11-16T14:47:55.265Z,80.40
2017-11-16T14:50:22.173Z,80.10
2017-11-16T14:52:48.355Z,80.10
2017-11-16T14:55:14.582Z,80.20
2017-11-16T14:57:40.793Z,80.30
2017-11-16T15:00:07.737Z,80.40
2017-11-16T15:02:33.925Z,80.30
2017-11-16T15:05:00.110Z,80.10
2017-11-16T15:07:27.042Z,80.00
2017-11-16T15:09:53.230Z,80.00
2017-11-16T15:12:19.404Z,79.90
2017-11-16T15:14:45.571Z,80.20
2017-11-16T15:17:12.497Z,79.90
2017-11-16T15:19:38.794Z,79.80
2017-11-16T15:22:04.954Z,79.90
2017-11-16T15:24:31.147Z,79.80
2017-11-16T15:26:57.325Z,79.70
2017-11-16T15:29:23.509Z,79.90
2017-11-16T15:31:49.726Z,79.70
2017-11-16T15:34:16.642Z,79.80
2017-11-16T15:36:42.805Z,79.80
2017-11-16T15:39:08.991Z,79.80
2017-11-16T15:41:35.162Z,79.90
2017-11-16T15:44:01.347Z,80.00
2017-11-16T15:46:27.530Z,80.00
2017-11-16T15:48:53.699Z,79.70
2017-11-16T15:51:19.874Z,79.30
2017-11-16T15:53:46.052Z,79.10
2017-11-16T15:56:12.242Z,79.30
2017-11-16T15:58:38.410Z,79.40
2017-11-16T16:01:05.359Z,79.40
2017-11-16T16:03:32.326Z,79.20
2017-11-16T16:05:59.251Z,79.50
2017-11-16T16:08:26.190Z,79.60
2017-11-16T16:10:52.378Z,79.50
2017-11-16T16:13:18.534Z,79.20
2017-11-16T16:15:44.710Z,79.40
2017-11-16T16:18:11.639Z,79.10
2017-11-16T16:20:37.892Z,78.80
2017-11-16T16:23:04.817Z,79.60
2017-11-16T16:25:30.990Z,79.60
2017-11-16T16:27:57.950Z,79.20
2017-11-16T16:30:24.132Z,79.20
2017-11-16T16:32:50.328Z,79.30
2017-11-16T16:35:16.592Z,83.30
2017-11-16T16:37:42.794Z,85.00
2017-11-16T16:40:08.972Z,82.30
2017-11-16T16:42:35.153Z,79.10
2017-11-16T16:45:02.095Z,78.40
2017-11-16T16:47:29.011Z,78.70
2017-11-16T16:49:56.714Z,78.50
2017-11-16T16:52:22.866Z,78.50
2017-11-16T16:54:49.035Z,78.70
2017-11-16T16:57:15.219Z,78.70
2017-11-16T16:59:42.130Z,78.70
2017-11-16T17:02:09.091Z,78.60
2017-11-16T17:04:36.013Z,78.70
2017-11-16T17:07:02.226Z,78.50
2017-11-16T17:09:28.417Z,78.60
2017-11-16T17:11:55.335Z,78.70
2017-11-16T17:14:21.554Z,78.60
2017-11-16T17:16:47.745Z,78.80
2017-11-16T17:19:14.646Z,78.90
2017-11-16T17:21:40.942Z,79.50
2017-11-16T17:24:07.130Z,79.10
2017-11-16T17:26:33.289Z,79.00
2017-11-16T17:29:00.233Z,80.00
2017-11-16T17:31:26.391Z,79.30
2017-11-16T17:33:52.569Z,79.30
2017-11-16T17:36:18.752Z,79.40
2017-11-16T17:38:45.682Z,79.20
2017-11-16T17:41:11.854Z,79.10
2017-11-16T17:43:38.027Z,78.90
2017-11-16T17:46:04.213Z,78.70
2017-11-16T17:48:30.381Z,78.70
2017-11-16T17:50:56.577Z,78.90
2017-11-16T17:53:22.762Z,79.10
2017-11-16T17:55:48.939Z,79.10
2017-11-16T17:58:15.131Z,79.20
2017-11-16T18:00:41.326Z,78.90
2017-11-16T18:03:07.518Z,79.00
2017-11-16T18:05:34.632Z,78.90
2017-11-16T18:08:00.805Z,78.90
2017-11-16T18:10:26.982Z,78.50
2017-11-16T18:12:54.049Z,78.90
2017-11-16T18:15:20.243Z,79.60
2017-11-16T18:17:46.421Z,79.70
2017-11-16T18:20:12.598Z,79.00
2017-11-16T18:22:38.834Z,78.90
2017-11-16T18:25:05.773Z,78.90
2017-11-16T18:27:33.618Z,78.80
2017-11-16T18:29:59.826Z,79.10
2017-11-16T18:32:26.028Z,79.30
2017-11-16T18:34:53.079Z,80.50
2017-11-16T18:37:19.282Z,79.80
2017-11-16T18:39:45.448Z,80.00
2017-11-16T18:42:11.635Z,79.90
2017-11-16T18:44:37.847Z,80.20
2017-11-16T18:47:04.019Z,80.50
2017-11-16T18:49:30.235Z,80.50
2017-11-16T18:51:56.423Z,80.60
2017-11-16T18:54:22.609Z,80.60
2017-11-16T18:56:48.946Z,80.20
2017-11-16T18:59:15.133Z,80.50
2017-11-16T19:01:41.318Z,80.20
2017-11-16T19:04:07.511Z,80.30
2017-11-16T19:06:33.666Z,80.10
2017-11-16T19:08:59.846Z,80.40
2017-11-16T19:11:26.804Z,80.30
2017-11-16T19:13:53.706Z,80.20
2017-11-16T19:16:19.878Z,80.10
2017-11-16T19:18:46.066Z,80.20
2017-11-16T19:21:12.238Z,80.00
2017-11-16T19:23:38.606Z,79.80
2017-11-16T19:26:04.867Z,80.00
2017-11-16T19:28:31.066Z,80.30
2017-11-16T19:30:57.290Z,80.50
2017-11-16T19:33:23.494Z,80.10
2017-11-16T19:35:50.446Z,80.40
2017-11-16T19:38:16.724Z,80.40
2017-11-16T19:40:42.991Z,80.20
2017-11-16T19:43:09.174Z,80.10
2017-11-16T19:45:36.114Z,80.00
2017-11-16T19:48:02.339Z,80.00
2017-11-16T19:50:29.302Z,80.60
2017-11-16T19:52:55.538Z,80.50
2017-11-16T19:55:22.565Z,80.90
2017-11-16T19:57:48.748Z,80.80
2017-11-16T20:00:15.670Z,80.70
2017-11-16T20:02:42.628Z,80.50
2017-11-16T20:05:09.561Z,80.70
2017-11-16T20:07:35.744Z,80.80
2017-11-16T20:10:01.931Z,80.70
2017-11-16T20:12:28.096Z,80.60
2017-11-16T20:14:55.012Z,80.50
2017-11-16T20:17:21.223Z,80.50
2017-11-16T20:19:47.402Z,80.60
2017-11-16T20:22:13.564Z,80.60
2017-11-16T20:24:39.817Z,80.70
2017-11-16T20:27:06.043Z,80.90
2017-11-16T20:29:32.219Z,80.80
2017-11-16T20:31:58.418Z,81.00
2017-11-16T20:34:24.610Z,80.80
2017-11-16T20:37:06.526Z,81.10
2017-11-16T20:42:49.904Z,81.00
2017-11-16T20:45:31.156Z,80.80
2017-11-16T20:48:05.085Z,81.30
2017-11-16T20:50:31.311Z,81.30
2017-11-16T20:52:57.517Z,81.30
2017-11-16T20:55:28.299Z,81.10
2017-11-16T20:57:54.469Z,81.30
2017-11-16T21:00:20.684Z,81.50
2017-11-16T21:02:46.888Z,81.30
2017-11-16T21:05:13.063Z,81.30
2017-11-16T21:07:39.981Z,81.50
2017-11-16T21:10:07.851Z,81.30
2017-11-16T21:12:34.038Z,81.30
2017-11-16T21:15:00.217Z,81.30
2017-11-16T21:17:26.412Z,81.30
2017-11-16T21:19:52.629Z,81.60
2017-11-16T21:22:18.826Z,81.70
2017-11-16T21:24:45.113Z,82.00
2017-11-16T21:27:11.287Z,81.50
2017-11-16T21:29:37.729Z,81.70
2017-11-16T21:32:03.970Z,81.60
2017-11-16T21:34:30.913Z,82.00
2017-11-16T21:36:57.092Z,81.90
2017-11-16T21:39:23.270Z,81.90
2017-11-16T21:41:49.458Z,81.90
2017-11-16T21:44:15.723Z,82.00
2017-11-16T21:46:41.930Z,82.20
2017-11-16T21:49:08.117Z,82.10
2017-11-16T21:51:34.315Z,82.20
2017-11-16T21:54:00.531Z,82.20
2017-11-16T21:56:29.115Z,82.00
2017-11-16T21:58:55.646Z,82.00
2017-11-16T22:01:22.630Z,82.00
2017-11-16T22:03:48.826Z,81.90
2017-11-16T22:06:15.752Z,82.60
2017-11-16T22:08:41.953Z,82.50
2017-11-16T22:11:08.148Z,82.90
2017-11-16T22:13:34.370Z,83.00
2017-11-16T22:16:00.608Z,82.90
2017-11-16T22:18:26.791Z,83.30
2017-11-16T22:20:52.945Z,83.00
2017-11-16T22:23:19.169Z,83.50
2017-11-16T22:25:45.408Z,83.50
2017-11-16T22:28:11.626Z,83.50
2017-11-16T22:30:38.734Z,83.60
2017-11-16T22:33:04.992Z,83.20
2017-11-16T22:35:31.200Z,83.80
2017-11-16T22:37:58.141Z,84.10
2017-11-16T22:40:24.300Z,83.90
2017-11-16T22:42:51.226Z,84.80
2017-11-16T22:45:17.443Z,84.00
2017-11-16T22:47:43.761Z,84.00
2017-11-16T22:50:09.967Z,84.10
2017-11-16T22:52:36.227Z,84.00
2017-11-16T22:55:02.460Z,84.10
2017-11-16T22:57:28.754Z,83.00
2017-11-16T22:59:55.706Z,82.70
2017-11-16T23:02:22.650Z,82.60
2017-11-16T23:04:49.015Z,82.60
2017-11-16T23:07:15.477Z,82.10
2017-11-16T23:09:42.457Z,81.20
2017-11-16T23:12:09.402Z,80.70
2017-11-16T23:14:35.645Z,80.60
2017-11-16T23:17:01.830Z,80.60
2017-11-16T23:19:27.997Z,80.40
2017-11-16T23:21:55.697Z,80.70
2017-11-16T23:24:22.649Z,81.20
2017-11-16T23:26:48.902Z,80.70
2017-11-16T23:29:15.128Z,79.70
2017-11-16T23:31:42.019Z,79.60
2017-11-16T23:34:08.193Z,79.50
2017-11-16T23:36:35.129Z,79.10
2017-11-16T23:39:01.298Z,79.10
2017-11-16T23:41:28.189Z,79.30
2017-11-16T23:43:54.398Z,79.30
2017-11-16T23:46:20.650Z,78.90
2017-11-16T23:48:46.830Z,78.90
2017-11-16T23:51:13.015Z,78.80
2017-11-16T23:53:39.197Z,79.10
2017-11-16T23:56:06.125Z,79.60
2017-11-16T23:58:32.335Z,79.50
